Time;durP1;ratioP1;P1;durP2;ratioP2;P2;SDS_P1;SDS_P2;PMS_P1;PMS_P2;Temp;Humidity;BMP_temperature;BMP_pressure;BME280_temperature;BME280_humidity;BME280_pressure;Samples;Min_cycle;Max_cycle;Signal;HPM_P1;HPM_P2
2022/11/08 00:03:28;;;;;;;8.70;2.70;;;;;;;13.13;73.85;100902.69;5052353;28;20554;-78
2022/11/08 00:14:06;;;;;;;6.35;2.90;;;;;;;13.07;73.41;100892.59;5032900;28;20040;-78
2022/11/08 00:16:31;;;;;;;10.30;2.63;;;;;;;13.10;73.39;100894.88;5033734;28;20025;-79
2022/11/08 00:18:57;;;;;;;10.38;2.55;;;;;;;13.08;73.80;100893.44;5036456;28;20036;-78
2022/11/08 00:21:22;;;;;;;9.90;3.20;;;;;;;13.06;73.87;100878.97;5062394;28;20115;-77
2022/11/08 00:23:47;;;;;;;8.85;3.17;;;;;;;13.06;73.66;100890.94;5032674;28;20079;-78
2022/11/08 00:26:13;;;;;;;6.68;2.30;;;;;;;13.02;73.83;100895.38;5040065;28;20040;-78
2022/11/08 00:28:38;;;;;;;8.77;2.67;;;;;;;13.00;73.99;100881.69;5052909;28;20028;-77
2022/11/08 00:31:05;;;;;;;8.73;2.90;;;;;;;12.97;73.86;100879.47;5051025;28;20075;-78
2022/11/08 00:33:30;;;;;;;5.35;1.90;;;;;;;12.97;74.38;100881.41;5046970;28;20720;-77
2022/11/08 00:35:59;;;;;;;7.75;2.40;;;;;;;12.95;73.97;100880.84;5053172;28;20025;-78
2022/11/08 00:38:24;;;;;;;9.30;2.45;;;;;;;12.95;74.27;100880.84;5037691;28;20022;-78
2022/11/08 00:40:50;;;;;;;6.40;2.30;;;;;;;12.94;74.11;100877.22;5053356;28;20052;-78
2022/11/08 00:43:15;;;;;;;8.07;2.30;;;;;;;12.95;73.97;100878.88;5038512;28;20091;-78
2022/11/08 00:45:40;;;;;;;11.25;2.70;;;;;;;12.93;74.16;100869.09;5048165;28;20036;-78
2022/11/08 00:48:06;;;;;;;10.40;2.45;;;;;;;12.92;73.70;100871.06;5038639;28;20159;-78
2022/11/08 00:50:36;;;;;;;9.32;2.50;;;;;;;12.93;73.85;100871.88;5046203;28;20094;-78
2022/11/08 00:53:01;;;;;;;5.45;2.10;;;;;;;12.90;74.11;100869.66;5053100;28;20021;-77
2022/11/08 00:55:27;;;;;;;7.47;2.40;;;;;;;12.93;73.96;100864.41;5037357;28;20435;-78
2022/11/08 00:57:52;;;;;;;6.95;2.30;;;;;;;12.90;73.96;100864.94;5040796;28;20031;-78
2022/11/08 01:00:18;;;;;;;10.60;2.63;;;;;;;12.89;74.23;100873.53;5043838;28;20036;-78
2022/11/08 01:02:43;;;;;;;10.07;2.75;;;;;;;12.88;73.98;100858.75;5064880;28;20047;-78
2022/11/08 01:05:08;;;;;;;7.82;2.17;;;;;;;12.85;74.01;100856.53;5074481;28;20047;-79
2022/11/08 01:07:34;;;;;;;10.93;2.22;;;;;;;12.82;74.61;100862.66;5056420;28;20451;-78
2022/11/08 01:09:59;;;;;;;6.10;2.08;;;;;;;12.75;74.53;100860.06;5036663;28;20481;-78
2022/11/08 01:12:24;;;;;;;6.03;2.40;;;;;;;12.76;74.48;100858.13;5035126;28;20022;-78
2022/11/08 01:14:49;;;;;;;4.60;1.73;;;;;;;12.77;74.50;100863.44;5045485;28;20029;-79
2022/11/08 01:17:15;;;;;;;8.13;2.40;;;;;;;12.77;74.16;100857.88;5060052;28;20102;-79
2022/11/08 01:19:40;;;;;;;9.18;2.10;;;;;;;12.74;74.41;100852.84;5043241;28;20077;-79
2022/11/08 01:22:05;;;;;;;7.05;2.30;;;;;;;12.72;74.49;100854.19;5054999;28;20459;-79
2022/11/08 01:24:31;;;;;;;4.93;2.20;;;;;;;12.71;74.69;100855.31;5041394;28;20028;-78
2022/11/08 01:26:56;;;;;;;8.35;2.45;;;;;;;12.68;74.70;100847.50;5033946;28;20053;-78
2022/11/08 01:29:21;;;;;;;7.05;2.42;;;;;;;12.63;74.53;100842.72;5036927;28;20033;-77
2022/11/08 01:31:46;;;;;;;8.45;2.50;;;;;;;12.70;74.80;100842.50;5055143;28;20481;-79
2022/11/08 01:34:11;;;;;;;8.02;2.45;;;;;;;12.70;74.62;100837.78;5050298;28;20040;-78
2022/11/08 01:36:37;;;;;;;6.32;2.45;;;;;;;12.70;74.81;100842.50;5038369;28;20049;-78
2022/11/08 01:39:02;;;;;;;9.75;2.83;;;;;;;12.64;74.68;100838.00;5038000;28;20029;-78
2022/11/08 01:41:27;;;;;;;6.85;2.72;;;;;;;12.62;74.91;100838.28;5035381;28;20047;-78
2022/11/08 01:43:56;;;;;;;10.38;2.90;;;;;;;12.58;74.83;100831.56;5040694;28;20096;-78
2022/11/08 01:46:34;;;;;;;8.18;2.83;;;;;;;12.65;74.88;100829.34;5051276;28;20029;-78
2022/11/08 01:49:21;;;;;;;10.45;2.97;;;;;;;12.67;74.46;100817.97;5046787;28;20405;-79
2022/11/08 01:51:52;;;;;;;11.48;3.28;;;;;;;12.60;74.60;100814.56;5049130;28;20032;-79
2022/11/08 01:54:30;;;;;;;9.82;2.97;;;;;;;12.58;75.22;100806.50;5045316;28;20067;-78
2022/11/08 01:56:56;;;;;;;4.53;2.70;;;;;;;12.56;74.88;100803.13;5036179;28;20504;-78
2022/11/08 01:59:22;;;;;;;6.65;2.47;;;;;;;12.57;74.83;100793.66;5040479;28;20450;-79
2022/11/08 02:01:48;;;;;;;6.80;2.70;;;;;;;12.59;75.05;100798.97;5057965;28;20111;-78
2022/11/08 02:04:14;;;;;;;6.85;2.90;;;;;;;12.56;74.58;100789.22;5055814;28;20028;-79
2022/11/08 02:06:41;;;;;;;7.28;2.65;;;;;;;12.52;74.69;100796.41;5038916;28;20052;-79
2022/11/08 02:09:09;;;;;;;6.97;2.60;;;;;;;12.48;75.05;100789.72;5037581;28;20033;-79
2022/11/08 02:11:35;;;;;;;9.57;2.63;;;;;;;12.47;75.15;100780.53;5035279;28;20129;-78
2022/11/08 02:14:02;;;;;;;7.25;2.67;;;;;;;12.44;75.34;100783.00;5033731;28;20556;-78
2022/11/08 02:16:28;;;;;;;7.50;2.80;;;;;;;12.45;75.11;100785.50;5052072;28;20060;-78
2022/11/08 02:18:53;;;;;;;3.78;1.90;;;;;;;12.46;75.02;100776.06;5056670;28;20052;-78
2022/11/08 02:21:26;;;;;;;4.32;2.38;;;;;;;12.42;75.47;100783.28;5054023;28;20052;-79
2022/11/08 02:24:00;;;;;;;7.35;2.53;;;;;;;12.45;75.41;100770.75;5034078;28;20026;-79
2022/11/08 02:26:31;;;;;;;6.35;2.45;;;;;;;12.47;75.43;100769.38;5035914;28;20052;-78
2022/11/08 02:28:56;;;;;;;6.13;2.70;;;;;;;12.45;75.27;100760.44;5043306;28;20156;-78
2022/11/08 02:31:22;;;;;;;8.38;2.42;;;;;;;12.42;75.16;100763.78;5052759;28;20450;-78
2022/11/08 02:33:47;;;;;;;9.00;2.40;;;;;;;12.41;75.33;100759.31;5059060;28;20020;-78
2022/11/08 02:36:18;;;;;;;4.75;2.17;;;;;;;12.40;74.86;100752.06;5071833;28;20153;-78
2022/11/08 02:38:47;;;;;;;8.05;2.13;;;;;;;12.38;75.29;100750.66;5053850;28;20037;-77
2022/11/08 02:41:12;;;;;;;6.63;2.40;;;;;;;12.39;75.22;100747.63;5054095;28;20021;-78
2022/11/08 02:43:37;;;;;;;8.02;2.63;;;;;;;12.40;75.04;100749.28;5053327;28;20032;-77
2022/11/08 02:46:03;;;;;;;7.50;2.08;;;;;;;12.42;75.08;100740.69;5052877;28;20028;-77
2022/11/08 02:48:28;;;;;;;7.85;2.63;;;;;;;12.42;74.63;100735.97;5035570;28;20037;-78
2022/11/08 02:50:54;;;;;;;7.57;2.30;;;;;;;12.43;75.01;100734.00;5033561;28;20079;-78
2022/11/08 02:53:19;;;;;;;6.32;2.30;;;;;;;12.42;75.01;100719.25;5051412;28;20041;-77
2022/11/08 02:55:45;;;;;;;5.95;2.10;;;;;;;12.41;74.49;100727.84;5049742;28;20040;-77
2022/11/08 02:58:10;;;;;;;7.20;2.35;;;;;;;12.41;74.86;100723.13;5050996;28;20048;-78
2022/11/08 03:00:36;;;;;;;7.32;2.22;;;;;;;12.40;74.58;100713.09;5044007;28;20034;-78
2022/11/08 03:03:02;;;;;;;3.85;1.73;;;;;;;12.37;74.92;100708.06;5044063;28;20530;-78
2022/11/08 03:05:28;;;;;;;6.45;2.10;;;;;;;12.39;74.64;100708.66;5035843;28;20056;-78
2022/11/08 03:07:54;;;;;;;6.30;2.10;;;;;;;12.40;74.81;100696.41;5054165;28;20373;-78
2022/11/08 03:10:20;;;;;;;6.35;2.08;;;;;;;12.41;74.65;100689.72;5044734;28;20029;-78
2022/11/08 03:12:45;;;;;;;8.35;2.28;;;;;;;12.40;74.29;100684.44;5041195;28;20804;-78
2022/11/08 03:15:12;;;;;;;4.25;2.00;;;;;;;12.42;74.23;100685.84;5042954;28;20029;-82
2022/11/08 03:17:38;;;;;;;6.63;2.35;;;;;;;12.40;74.31;100681.66;5034171;28;20048;-79
2022/11/08 03:20:04;;;;;;;8.88;2.05;;;;;;;12.38;74.12;100678.28;5048786;28;20063;-78
2022/11/08 03:22:29;;;;;;;5.88;2.15;;;;;;;12.38;74.27;100684.72;5048914;28;20041;-78
2022/11/08 03:24:55;;;;;;;5.93;2.08;;;;;;;12.35;74.09;100678.84;5052088;28;20029;-79
2022/11/08 03:27:20;;;;;;;6.30;2.30;;;;;;;12.35;73.72;100685.25;5035539;28;20053;-78
2022/11/08 03:29:46;;;;;;;6.07;1.95;;;;;;;12.31;74.15;100672.97;5045297;28;20036;-78
2022/11/08 03:32:12;;;;;;;5.35;1.90;;;;;;;12.36;73.82;100675.78;5048447;28;20453;-79
2022/11/08 03:34:37;;;;;;;6.57;2.25;;;;;;;12.35;73.89;100663.00;5048661;28;20065;-78
2022/11/08 03:37:08;;;;;;;8.50;2.53;;;;;;;12.36;73.81;100663.81;5051929;28;20079;-79
2022/11/08 03:39:34;;;;;;;5.95;2.35;;;;;;;12.35;73.94;100653.81;5038649;28;20460;-79
2022/11/08 03:42:02;;;;;;;5.47;2.00;;;;;;;12.36;73.77;100650.72;5031651;28;20392;-78
2022/11/08 03:44:28;;;;;;;7.32;2.60;;;;;;;12.28;73.70;100640.94;5031933;28;20381;-76
2022/11/08 03:46:53;;;;;;;6.85;2.50;;;;;;;12.30;73.67;100637.91;5040623;28;20021;-78
2022/11/08 03:49:19;;;;;;;6.50;2.42;;;;;;;12.30;73.67;100629.56;5050110;28;20396;-78
2022/11/08 03:51:44;;;;;;;9.98;3.10;;;;;;;12.29;73.63;100620.34;5058746;28;20028;-78
2022/11/08 03:54:09;;;;;;;6.57;2.28;;;;;;;12.33;73.60;100619.81;5043078;28;20647;-79
2022/11/08 03:56:35;;;;;;;5.93;2.58;;;;;;;12.30;73.37;100621.22;5030742;28;20041;-78
2022/11/08 03:59:00;;;;;;;6.03;2.28;;;;;;;12.22;73.76;100618.91;5048381;28;20393;-79
2022/11/08 04:01:25;;;;;;;7.72;2.38;;;;;;;12.24;73.46;100613.94;5039002;28;20040;-78
2022/11/08 04:03:51;;;;;;;8.43;2.60;;;;;;;12.22;73.36;100608.66;5034642;28;20025;-79
2022/11/08 04:06:16;;;;;;;8.30;3.03;;;;;;;12.21;73.62;100606.13;5048310;28;20506;-77
2022/11/08 04:08:41;;;;;;;8.98;3.17;;;;;;;12.20;73.43;100615.59;5056929;28;20136;-78
2022/11/08 04:16:34;;;;;;;13.13;3.78;;;;;;;12.21;73.13;100584.69;5047286;28;20491;-78
2022/11/08 04:21:48;;;;;;;10.00;3.50;;;;;;;12.17;73.17;100580.78;5057645;28;20048;-79
2022/11/08 04:24:13;;;;;;;12.30;3.75;;;;;;;12.17;73.12;100577.16;5071790;28;20479;-80
2022/11/08 04:26:40;;;;;;;8.30;3.08;;;;;;;12.18;72.51;100581.63;5073509;28;20074;-79
2022/11/08 04:29:06;;;;;;;9.15;3.00;;;;;;;12.13;72.98;100581.59;5056805;28;20044;-76
2022/11/08 04:31:31;;;;;;;10.60;3.05;;;;;;;12.16;72.80;100575.50;5051354;28;20029;-77
2022/11/08 04:33:56;;;;;;;8.45;2.83;;;;;;;12.15;72.69;100576.63;5051947;28;20041;-76
2022/11/08 04:36:22;;;;;;;8.93;3.10;;;;;;;12.08;72.50;100562.09;5036796;28;20049;-77
2022/11/08 04:38:49;;;;;;;8.38;2.55;;;;;;;12.05;72.49;100560.69;5031802;28;20407;-77
2022/11/08 04:41:16;;;;;;;10.10;2.95;;;;;;;12.07;72.24;100557.66;5033238;28;20029;-77
2022/11/08 04:43:41;;;;;;;6.75;2.65;;;;;;;12.06;72.07;100564.31;5031550;28;20473;-79
2022/11/08 04:46:12;;;;;;;8.15;2.88;;;;;;;12.07;71.95;100555.72;5033189;28;20481;-78
2022/11/08 04:48:38;;;;;;;5.85;2.28;;;;;;;12.09;71.86;100552.66;5030298;28;20488;-78
2022/11/08 04:51:06;;;;;;;6.55;2.53;;;;;;;12.06;71.62;100542.06;5056400;28;20039;-78
2022/11/08 04:53:32;;;;;;;8.40;2.50;;;;;;;12.03;71.37;100537.88;5061653;28;20108;-78
2022/11/08 04:56:00;;;;;;;8.68;2.60;;;;;;;12.05;71.62;100527.31;5031730;28;20057;-78
2022/11/08 04:58:26;;;;;;;7.22;2.67;;;;;;;12.06;71.70;100537.31;5031745;28;20128;-78
2022/11/08 05:00:51;;;;;;;9.95;2.67;;;;;;;12.06;71.23;100528.97;5031100;28;20034;-78
2022/11/08 05:03:16;;;;;;;8.82;2.25;;;;;;;12.04;71.36;100528.44;5031198;28;20734;-78
2022/11/08 05:05:42;;;;;;;8.60;2.55;;;;;;;12.00;71.28;100528.13;5030677;28;20034;-79
2022/11/08 05:08:07;;;;;;;7.85;2.45;;;;;;;11.95;70.86;100519.75;5061005;28;20068;-78
2022/11/08 05:10:32;;;;;;;9.13;2.83;;;;;;;11.97;71.05;100514.75;5061604;28;20401;-79
2022/11/08 05:12:57;;;;;;;7.20;2.13;;;;;;;11.96;71.12;100515.03;5030605;28;20083;-78
2022/11/08 05:15:23;;;;;;;5.03;1.95;;;;;;;11.97;70.80;100519.47;5032801;28;20492;-78
2022/11/08 05:17:48;;;;;;;6.82;2.50;;;;;;;11.92;70.49;100514.75;5036374;28;20025;-78
2022/11/08 05:25:45;;;;;;;6.90;2.78;;;;;;;11.92;70.35;100514.75;5031017;28;20040;-78
2022/11/08 05:28:11;;;;;;;8.15;2.55;;;;;;;11.91;70.10;100507.50;5042845;28;20037;-78
2022/11/08 05:30:36;;;;;;;11.32;2.40;;;;;;;11.92;69.99;100505.56;5046181;28;20396;-78
2022/11/08 05:33:01;;;;;;;6.45;2.20;;;;;;;11.88;69.85;100502.47;5041861;28;20469;-78
2022/11/08 05:35:27;;;;;;;6.30;1.95;;;;;;;11.87;69.74;100492.47;5045888;28;20036;-77
2022/11/08 05:37:52;;;;;;;6.88;2.40;;;;;;;11.86;69.74;100499.13;5072327;28;20036;-77
2022/11/08 05:40:17;;;;;;;6.10;2.30;;;;;;;11.88;69.83;100490.53;5074444;28;20035;-77
2022/11/08 05:42:42;;;;;;;6.53;2.03;;;;;;;11.84;70.05;100494.97;5075139;28;20115;-78
2022/11/08 05:45:08;;;;;;;7.63;2.10;;;;;;;11.85;70.20;100497.44;5055912;28;20456;-77
2022/11/08 05:47:33;;;;;;;5.13;2.22;;;;;;;11.82;69.53;100494.34;5034313;28;20041;-78
2022/11/08 05:49:58;;;;;;;7.32;2.25;;;;;;;11.78;69.87;100497.66;5038538;28;20104;-77
2022/11/08 05:52:24;;;;;;;6.15;1.92;;;;;;;11.76;70.01;100497.09;5055864;28;20051;-78
2022/11/08 05:54:49;;;;;;;6.65;2.03;;;;;;;11.76;69.74;100494.31;5037882;28;20070;-78
2022/11/08 05:57:14;;;;;;;8.13;2.58;;;;;;;11.69;69.77;100490.94;5039083;28;20030;-77
2022/11/08 05:59:40;;;;;;;4.65;2.40;;;;;;;11.70;70.00;100489.00;5052501;28;20049;-78
2022/11/08 06:02:05;;;;;;;5.20;2.20;;;;;;;11.70;69.72;100489.00;5058513;28;20041;-78
2022/11/08 06:04:30;;;;;;;4.20;1.80;;;;;;;11.70;70.07;100491.78;5058884;28;20037;-79
2022/11/08 06:06:56;;;;;;;7.90;2.83;;;;;;;11.70;69.79;100486.22;5066505;28;20035;-79
2022/11/08 06:09:21;;;;;;;6.10;2.10;;;;;;;11.70;69.37;100480.66;5062476;28;20052;-78
2022/11/08 06:11:46;;;;;;;7.13;2.47;;;;;;;11.69;70.06;100482.59;5077461;28;20028;-78
2022/11/08 06:14:11;;;;;;;6.68;2.35;;;;;;;11.69;69.58;100479.81;5074497;28;20031;-78
2022/11/08 06:16:37;;;;;;;6.40;2.22;;;;;;;11.65;69.45;100481.47;5074990;28;20024;-77
2022/11/08 06:19:02;;;;;;;7.40;2.50;;;;;;;11.66;69.51;100477.56;5058401;28;20029;-80
2022/11/08 06:21:27;;;;;;;5.55;2.10;;;;;;;11.62;69.71;100489.50;5048301;28;20785;-72
2022/11/08 06:23:53;;;;;;;5.93;2.30;;;;;;;11.66;69.81;100483.13;5061750;28;20111;-77
2022/11/08 06:26:20;;;;;;;7.03;2.47;;;;;;;11.60;69.53;100487.00;5047738;28;20107;-75
2022/11/08 06:28:46;;;;;;;8.80;2.97;;;;;;;11.65;69.39;100483.41;5051437;28;20033;-72
2022/11/08 06:31:11;;;;;;;7.22;2.70;;;;;;;11.64;69.50;100490.09;5051054;28;20116;-73
2022/11/08 06:33:37;;;;;;;8.77;2.38;;;;;;;11.67;69.46;100481.19;5043770;28;20046;-74
2022/11/08 06:36:02;;;;;;;6.10;2.58;;;;;;;11.69;69.96;100487.31;5037146;28;20057;-72
2022/11/08 06:38:30;;;;;;;3.22;2.20;;;;;;;11.63;69.17;100486.47;5043374;28;20025;-69
2022/11/08 06:41:00;;;;;;;7.25;2.60;;;;;;;11.64;69.60;100492.88;5034327;28;20472;-69
2022/11/08 06:43:25;;;;;;;8.65;2.97;;;;;;;11.62;69.01;100486.72;5040240;28;20037;-71
2022/11/08 06:45:51;;;;;;;5.82;2.40;;;;;;;11.65;69.11;100486.19;5048619;28;20439;-69
2022/11/08 06:48:16;;;;;;;5.63;2.40;;;;;;;11.66;68.96;100479.53;5044052;28;20032;-69
2022/11/08 06:50:43;;;;;;;7.18;2.63;;;;;;;11.64;68.95;100482.59;5051070;28;20037;-72
2022/11/08 06:53:11;;;;;;;8.15;2.97;;;;;;;11.63;68.87;100493.94;5050468;28;20036;-70
2022/11/08 06:55:36;;;;;;;5.38;2.42;;;;;;;11.57;69.04;100490.31;5042624;28;20071;-71
2022/11/08 06:58:03;;;;;;;5.20;2.30;;;;;;;11.61;69.11;100494.22;5031038;28;20026;-70
2022/11/08 07:00:28;;;;;;;7.80;3.00;;;;;;;11.60;68.60;100483.41;5029958;28;20498;-69
2022/11/08 07:02:56;;;;;;;5.18;2.67;;;;;;;11.60;68.59;100488.94;5031357;28;20022;-69
2022/11/08 07:05:21;;;;;;;7.38;2.40;;;;;;;11.57;68.51;100492.25;5048909;28;20534;-71
2022/11/08 07:07:53;;;;;;;10.13;2.70;;;;;;;11.61;68.72;100498.97;5065350;28;20025;-69
2022/11/08 07:10:23;;;;;;;7.50;2.80;;;;;;;11.63;68.53;100507.84;5050877;28;20041;-68
2022/11/08 07:13:00;;;;;;;8.40;2.83;;;;;;;11.62;68.69;100504.25;5051002;28;21072;-69
2022/11/08 07:15:27;;;;;;;6.70;2.63;;;;;;;11.66;68.57;100515.66;5051125;28;20021;-68
2022/11/08 07:17:52;;;;;;;8.43;3.08;;;;;;;11.63;68.49;100505.06;5048289;28;20074;-68
2022/11/08 07:20:17;;;;;;;5.65;2.53;;;;;;;11.67;68.42;100504.28;5046585;28;20032;-69
2022/11/08 07:22:42;;;;;;;9.95;2.60;;;;;;;11.66;68.21;100504.53;5044539;28;20033;-68
2022/11/08 07:25:08;;;;;;;5.85;2.72;;;;;;;11.69;68.62;100501.22;5031884;28;20032;-68
2022/11/08 07:27:34;;;;;;;5.78;2.70;;;;;;;11.70;67.91;100492.59;5030630;28;20041;-68
2022/11/08 07:29:59;;;;;;;5.15;2.30;;;;;;;11.69;68.19;100495.66;5030861;28;20029;-68
2022/11/08 07:32:25;;;;;;;6.93;2.92;;;;;;;11.65;68.23;100497.31;5029979;28;20034;-68
2022/11/08 07:34:50;;;;;;;6.30;2.55;;;;;;;11.70;68.38;100489.81;5030908;28;20025;-69
2022/11/08 07:37:15;;;;;;;6.13;2.35;;;;;;;11.71;67.93;100494.31;5030220;28;20436;-68
2022/11/08 07:39:41;;;;;;;5.28;2.20;;;;;;;11.70;67.85;100495.38;5048130;28;20024;-69
2022/11/08 07:42:08;;;;;;;5.10;2.03;;;;;;;11.69;67.86;100499.28;5069875;28;20597;-69
2022/11/08 07:44:35;;;;;;;6.45;2.60;;;;;;;11.71;67.99;100480.41;5070838;28;20067;-68
2022/11/08 07:47:00;;;;;;;6.13;2.47;;;;;;;11.70;68.13;100495.38;5052983;28;20472;-69
2022/11/08 07:49:25;;;;;;;4.07;2.20;;;;;;;11.70;67.80;100494.56;5036842;28;20032;-69
2022/11/08 07:51:51;;;;;;;2.40;1.90;;;;;;;11.74;68.08;100490.97;5049762;28;20033;-65
2022/11/08 07:54:16;;;;;;;4.15;2.17;;;;;;;11.72;67.52;100482.06;5051327;28;20021;-68
2022/11/08 07:56:41;;;;;;;8.32;2.63;;;;;;;11.73;67.46;100474.56;5068737;28;20036;-70
2022/11/08 07:59:06;;;;;;;5.90;2.40;;;;;;;11.73;67.54;100477.34;5068183;28;20757;-69
2022/11/08 08:01:34;;;;;;;5.55;2.30;;;;;;;11.75;67.28;100477.88;5026577;28;20393;-68
2022/11/08 08:04:00;;;;;;;4.95;2.17;;;;;;;11.78;66.99;100469.00;5037116;28;20091;-69
2022/11/08 08:06:25;;;;;;;4.60;1.90;;;;;;;11.78;67.07;100472.63;5030507;28;20033;-68
2022/11/08 08:09:03;;;;;;;8.50;2.00;;;;;;;11.83;66.05;100484.88;5041865;28;20476;-66
2022/11/08 08:11:28;;;;;;;4.00;1.92;;;;;;;11.87;66.06;100475.78;5055525;28;20035;-69
2022/11/08 08:13:55;;;;;;;4.72;1.80;;;;;;;11.87;65.83;100478.56;5034848;28;20052;-69
2022/11/08 08:16:21;;;;;;;4.05;1.98;;;;;;;11.92;65.28;100480.53;5035978;28;20050;-68
2022/11/08 08:18:50;;;;;;;6.53;2.15;;;;;;;11.94;65.34;100469.94;5049288;28;20033;-70
2022/11/08 08:21:16;;;;;;;3.47;1.80;;;;;;;11.97;65.28;100488.88;5037093;28;20567;-69
2022/11/08 08:23:41;;;;;;;3.78;1.80;;;;;;;11.99;65.08;100501.44;5030686;28;20091;-67
2022/11/08 08:26:07;;;;;;;3.78;1.70;;;;;;;12.02;65.24;100492.53;5043100;28;20053;-67
2022/11/08 08:28:32;;;;;;;2.35;1.80;;;;;;;12.08;65.71;100487.81;5030470;28;20156;-67
2022/11/08 08:30:57;;;;;;;3.38;1.90;;;;;;;12.12;64.68;100493.69;5041239;28;20506;-67
2022/11/08 08:33:24;;;;;;;3.95;1.63;;;;;;;12.14;64.50;100508.97;5031765;28;20030;-67
2022/11/08 08:35:51;;;;;;;3.47;1.90;;;;;;;12.15;64.43;100512.63;5029396;28;20030;-66
2022/11/08 08:38:17;;;;;;;3.40;1.55;;;;;;;12.21;64.65;100522.66;5034698;28;20119;-67
2022/11/08 08:40:45;;;;;;;3.50;1.58;;;;;;;12.23;64.79;100515.72;5049519;28;20508;-67
2022/11/08 08:43:10;;;;;;;5.35;1.65;;;;;;;12.27;64.55;100500.16;5067817;28;20082;-67
2022/11/08 08:45:36;;;;;;;2.67;1.80;;;;;;;12.31;64.49;100494.88;5070053;28;20037;-67
2022/11/08 08:48:02;;;;;;;3.63;1.88;;;;;;;12.36;64.29;100497.66;5054488;28;20055;-67
2022/11/08 08:50:30;;;;;;;3.33;1.90;;;;;;;12.38;64.00;100486.25;5049407;28;20021;-67
2022/11/08 08:53:00;;;;;;;3.97;1.90;;;;;;;12.40;64.26;100470.94;5045426;28;20017;-67
2022/11/08 08:55:26;;;;;;;3.97;1.90;;;;;;;12.41;64.02;100488.47;5047195;28;20046;-67
2022/11/08 08:57:54;;;;;;;6.10;2.10;;;;;;;12.42;64.11;100479.88;5067207;28;20025;-67
2022/11/08 09:00:21;;;;;;;4.75;2.08;;;;;;;12.45;64.66;100476.53;5031308;28;20029;-64
2022/11/08 09:02:46;;;;;;;3.78;1.60;;;;;;;12.48;64.33;100473.19;5029636;28;20061;-68
2022/11/08 09:05:12;;;;;;;4.88;1.90;;;;;;;12.51;63.95;100477.38;5028924;28;20053;-66
2022/11/08 09:07:38;;;;;;;3.78;1.60;;;;;;;12.53;63.97;100464.00;5029774;28;20026;-67
2022/11/08 09:10:05;;;;;;;2.38;1.80;;;;;;;12.56;63.77;100465.41;5045461;28;20079;-67
2022/11/08 09:12:31;;;;;;;4.15;1.73;;;;;;;12.58;63.72;100455.69;5030784;28;20499;-67
2022/11/08 09:14:56;;;;;;;5.88;1.80;;;;;;;12.61;63.50;100459.84;5032972;28;20033;-68
2022/11/08 09:17:21;;;;;;;3.03;1.90;;;;;;;12.64;63.86;100481.56;5050346;28;20020;-67
2022/11/08 09:19:47;;;;;;;4.68;1.70;;;;;;;12.66;64.01;100484.94;5053489;28;20059;-67
2022/11/08 09:22:12;;;;;;;3.10;1.80;;;;;;;12.69;63.89;100478.78;5053529;28;20069;-66
2022/11/08 09:24:38;;;;;;;3.42;1.60;;;;;;;12.71;64.25;100476.59;5065523;28;20394;-67
2022/11/08 09:27:03;;;;;;;3.85;1.90;;;;;;;12.72;63.41;100455.97;5064899;28;20040;-67
2022/11/08 09:29:29;;;;;;;2.65;1.90;;;;;;;12.74;63.42;100464.91;5033445;28;20037;-67
2022/11/08 09:31:55;;;;;;;5.18;1.85;;;;;;;12.74;63.39;100459.31;5042755;28;20354;-67
2022/11/08 09:34:20;;;;;;;5.13;1.58;;;;;;;12.74;63.33;100462.94;5053482;28;20036;-67
2022/11/08 09:36:46;;;;;;;2.85;1.80;;;;;;;12.74;63.75;100473.25;5052331;28;20049;-67
2022/11/08 09:39:11;;;;;;;5.38;1.75;;;;;;;12.74;63.24;100465.72;5063757;28;20036;-67
2022/11/08 09:41:55;;;;;;;4.88;2.00;;;;;;;12.77;63.79;100476.31;5072234;28;20024;-67
2022/11/08 09:44:54;;;;;;;4.43;1.95;;;;;;;12.80;63.55;100458.19;5061470;28;20083;-67
2022/11/08 09:47:25;;;;;;;3.33;1.60;;;;;;;12.83;63.64;100459.59;5037787;28;20469;-67
2022/11/08 09:50:00;;;;;;;3.55;1.85;;;;;;;12.88;63.64;100462.38;5052798;28;20029;-67
2022/11/08 09:52:29;;;;;;;3.75;1.90;;;;;;;12.94;63.32;100472.44;5049616;28;20029;-67
2022/11/08 09:55:21;;;;;;;2.75;1.80;;;;;;;12.99;63.55;100480.78;5041018;28;20483;-67
2022/11/08 09:58:18;;;;;;;4.43;1.98;;;;;;;13.05;63.48;100485.25;5051950;28;20186;-67
2022/11/08 10:00:44;;;;;;;3.83;2.20;;;;;;;13.14;62.97;100480.78;5032227;28;20468;-67
2022/11/08 10:03:15;;;;;;;3.42;1.90;;;;;;;13.27;62.92;100482.19;5031954;28;20021;-67
2022/11/08 10:05:47;;;;;;;4.40;1.90;;;;;;;13.37;62.64;100481.34;5032870;28;20057;-67
2022/11/08 10:08:25;;;;;;;2.63;1.70;;;;;;;13.48;62.88;100469.91;5056577;28;20040;-66
2022/11/08 10:11:15;;;;;;;5.30;1.85;;;;;;;13.55;62.06;100477.97;5061866;28;20033;-67
2022/11/08 10:14:17;;;;;;;2.60;1.70;;;;;;;13.60;62.85;100488.28;5043577;28;20033;-67
2022/11/08 10:16:54;;;;;;;4.10;2.25;;;;;;;13.68;61.66;100485.75;5043077;28;20033;-67
2022/11/08 10:19:50;;;;;;;2.92;1.70;;;;;;;13.70;62.04;100483.50;5051530;28;20036;-63
2022/11/08 10:22:27;;;;;;;4.57;2.10;;;;;;;13.72;61.29;100502.75;5051104;28;20042;-63
2022/11/08 10:24:59;;;;;;;3.75;1.80;;;;;;;13.70;60.98;100494.66;5066510;28;20028;-65
2022/11/08 10:27:40;;;;;;;3.08;1.60;;;;;;;13.70;60.87;100494.66;5050972;28;20029;-65
2022/11/08 10:30:33;;;;;;;5.22;1.90;;;;;;;13.69;60.81;100508.91;5043346;28;20124;-65
2022/11/08 10:32:59;;;;;;;6.20;1.65;;;;;;;13.68;60.89;100502.50;5047928;28;20021;-65
2022/11/08 10:35:47;;;;;;;3.33;1.83;;;;;;;13.69;61.77;100508.91;5040416;28;20132;-65
2022/11/08 10:38:29;;;;;;;5.45;1.67;;;;;;;13.68;61.49;100499.69;5044641;28;20060;-65
2022/11/08 10:41:09;;;;;;;4.00;2.08;;;;;;;13.67;61.41;100502.75;5051363;28;20024;-62
2022/11/08 10:43:59;;;;;;;2.85;1.50;;;;;;;13.66;61.46;100510.28;5043590;28;20038;-64
2022/11/08 10:46:38;;;;;;;4.72;1.70;;;;;;;13.67;61.96;100513.91;5038014;28;20037;-65
2022/11/08 10:49:21;;;;;;;3.25;1.92;;;;;;;13.69;61.07;100497.75;5042504;28;20130;-66
2022/11/08 10:51:56;;;;;;;2.55;1.52;;;;;;;13.69;61.43;100508.91;5038080;28;20146;-64
2022/11/08 10:54:53;;;;;;;2.65;1.67;;;;;;;13.70;61.61;100497.44;5052385;28;20028;-65
2022/11/08 10:57:37;;;;;;;5.65;1.92;;;;;;;13.72;62.21;100494.41;5047026;28;20395;-70
2022/11/08 11:00:21;;;;;;;3.80;1.88;;;;;;;13.74;61.33;100506.09;5054088;28;20032;-70
2022/11/08 11:03:10;;;;;;;3.80;2.10;;;;;;;13.75;61.08;100491.00;5052987;28;20044;-71
2022/11/08 11:05:40;;;;;;;13.98;2.28;;;;;;;13.75;60.96;100491.88;5049276;28;20028;-70
2022/11/08 11:08:08;;;;;;;3.65;1.52;;;;;;;13.77;61.28;100486.00;5049582;28;20508;-73
2022/11/08 11:10:45;;;;;;;3.17;1.85;;;;;;;13.78;61.33;100496.03;5037850;28;20052;-72
2022/11/08 11:13:13;;;;;;;5.15;1.92;;;;;;;13.78;60.60;100479.28;5044054;28;20033;-73
2022/11/08 11:16:02;;;;;;;4.22;1.80;;;;;;;13.79;61.18;100458.66;5048409;28;20029;-73
2022/11/08 11:18:31;;;;;;;3.22;2.00;;;;;;;13.78;60.64;100456.97;5043385;28;20036;-74
2022/11/08 11:21:13;;;;;;;5.22;2.10;;;;;;;13.80;61.05;100471.50;5043951;28;20075;-75
2022/11/08 11:23:50;;;;;;;4.53;2.00;;;;;;;13.80;61.55;100471.50;5044607;28;20033;-71
2022/11/08 11:26:29;;;;;;;5.47;1.85;;;;;;;13.81;61.07;100450.84;5044439;28;20428;-73
2022/11/08 11:29:03;;;;;;;3.85;2.03;;;;;;;13.84;61.11;100447.50;5053284;28;20025;-68
2022/11/08 11:31:34;;;;;;;5.18;2.10;;;;;;;13.84;61.04;100439.13;5041601;28;20032;-69
2022/11/08 11:34:39;;;;;;;4.85;1.80;;;;;;;13.87;61.66;100429.31;5042144;28;21997;-70
2022/11/08 11:37:07;;;;;;;6.43;1.95;;;;;;;13.90;60.96;100442.72;5038130;28;20044;-71
2022/11/08 11:39:48;;;;;;;3.67;2.03;;;;;;;13.92;61.57;100452.47;5044732;28;20115;-69
2022/11/08 11:42:22;;;;;;;4.70;2.03;;;;;;;13.96;61.31;100450.78;5036400;28;20063;-67
2022/11/08 11:45:24;;;;;;;4.88;2.10;;;;;;;13.99;61.51;100449.38;5043823;28;20034;-67
2022/11/08 11:47:52;;;;;;;6.50;2.25;;;;;;;14.00;61.29;100439.88;5033692;28;20055;-69
2022/11/08 11:50:37;;;;;;;5.30;1.95;;;;;;;14.03;61.55;100435.66;5030675;28;20026;-70
2022/11/08 11:53:11;;;;;;;3.83;1.85;;;;;;;14.03;60.79;100427.31;5038253;28;20472;-69
2022/11/08 11:56:04;;;;;;;10.95;1.90;;;;;;;14.06;61.35;100427.56;5029940;28;20114;-70